sensor_id;sensor_type;location;lat;lon;timestamp;pressure;altitude;pressure_sealevel;temperature;humidity
5988;BME280;3021;51.000;6.980;2023-04-06T00:00:25;66613.41;;;2.77;100.00
5988;BME280;3021;51.000;6.980;2023-04-06T00:02:51;66606.53;;;2.71;100.00
5988;BME280;3021;51.000;6.980;2023-04-06T00:05:18;66594.22;;;2.65;100.00
5988;BME280;3021;51.000;6.980;2023-04-06T00:07:43;66588.31;;;2.57;100.00
5988;BME280;3021;51.000;6.980;2023-04-06T00:10:09;66586.28;;;2.50;100.00
5988;BME280;3021;51.000;6.980;2023-04-06T00:12:35;66580.28;;;2.50;100.00
5988;BME280;3021;51.000;6.980;2023-04-06T00:15:00;66581.44;;;2.51;100.00
5988;BME280;3021;51.000;6.980;2023-04-06T00:17:26;66594.06;;;2.62;100.00
5988;BME280;3021;51.000;6.980;2023-04-06T00:19:52;66606.53;;;2.71;100.00
5988;BME280;3021;51.000;6.980;2023-04-06T00:22:17;66604.06;;;2.66;100.00
5988;BME280;3021;51.000;6.980;2023-04-06T00:24:43;66605.38;;;2.70;100.00
5988;BME280;3021;51.000;6.980;2023-04-06T00:27:08;66592.91;;;2.61;100.00
5988;BME280;3021;51.000;6.980;2023-04-06T00:29:33;66594.47;;;2.60;100.00
5988;BME280;3021;51.000;6.980;2023-04-06T00:31:59;66594.31;;;2.57;100.00
5988;BME280;3021;51.000;6.980;2023-04-06T00:34:24;66580.72;;;2.48;100.00
5988;BME280;3021;51.000;6.980;2023-04-06T00:36:50;66565.22;;;2.34;100.00
5988;BME280;3021;51.000;6.980;2023-04-06T00:39:15;66552.59;;;2.22;100.00
5988;BME280;3021;51.000;6.980;2023-04-06T00:41:46;66547.44;;;2.18;100.00
5988;BME280;3021;51.000;6.980;2023-04-06T00:44:11;66541.13;;;2.12;100.00
5988;BME280;3021;51.000;6.980;2023-04-06T00:46:37;66533.81;;;2.08;100.00
5988;BME280;3021;51.000;6.980;2023-04-06T00:49:02;66533.81;;;2.08;100.00
5988;BME280;3021;51.000;6.980;2023-04-06T00:51:28;66532.09;;;2.06;100.00
5988;BME280;3021;51.000;6.980;2023-04-06T00:53:53;66533.81;;;2.08;100.00
5988;BME280;3021;51.000;6.980;2023-04-06T00:56:19;66529.22;;;2.04;100.00
5988;BME280;3021;51.000;6.980;2023-04-06T00:58:46;66531.22;;;2.01;100.00
5988;BME280;3021;51.000;6.980;2023-04-06T01:01:11;66519.91;;;1.93;100.00
5988;BME280;3021;51.000;6.980;2023-04-06T01:03:37;66515.88;;;1.89;100.00
5988;BME280;3021;51.000;6.980;2023-04-06T01:06:02;66509.19;;;1.86;100.00
5988;BME280;3021;51.000;6.980;2023-04-06T01:08:28;66506.31;;;1.83;100.00
5988;BME280;3021;51.000;6.980;2023-04-06T01:10:54;66500.41;;;1.76;100.00
5988;BME280;3021;51.000;6.980;2023-04-06T01:13:19;66498.94;;;1.69;100.00
5988;BME280;3021;51.000;6.980;2023-04-06T01:15:45;66494.16;;;1.63;100.00
5988;BME280;3021;51.000;6.980;2023-04-06T01:18:11;66482.63;;;1.60;100.00
5988;BME280;3021;51.000;6.980;2023-04-06T01:20:36;66478.03;;;1.55;100.00
5988;BME280;3021;51.000;6.980;2023-04-06T01:23:02;66471.72;;;1.50;100.00
5988;BME280;3021;51.000;6.980;2023-04-06T01:25:27;66467.72;;;1.46;100.00
5988;BME280;3021;51.000;6.980;2023-04-06T01:27:53;66458.72;;;1.41;100.00
5988;BME280;3021;51.000;6.980;2023-04-06T01:30:18;66454.28;;;1.39;100.00
5988;BME280;3021;51.000;6.980;2023-04-06T01:32:44;66455.69;;;1.35;100.00
5988;BME280;3021;51.000;6.980;2023-04-06T01:35:10;66448.97;;;1.32;100.00
5988;BME280;3021;51.000;6.980;2023-04-06T01:37:36;66447.09;;;1.28;100.00
5988;BME280;3021;51.000;6.980;2023-04-06T01:40:02;66445.19;;;1.24;100.00
5988;BME280;3021;51.000;6.980;2023-04-06T01:42:28;66439.63;;;1.21;100.00
5988;BME280;3021;51.000;6.980;2023-04-06T01:44:53;66438.91;;;1.18;100.00
5988;BME280;3021;51.000;6.980;2023-04-06T01:47:19;66435.63;;;1.17;100.00
5988;BME280;3021;51.000;6.980;2023-04-06T01:49:44;66433.16;;;1.13;100.00
5988;BME280;3021;51.000;6.980;2023-04-06T01:52:09;66430.72;;;1.08;100.00
5988;BME280;3021;51.000;6.980;2023-04-06T01:54:35;66425.13;;;1.06;100.00
5988;BME280;3021;51.000;6.980;2023-04-06T01:57:00;66424.41;;;1.02;100.00
5988;BME280;3021;51.000;6.980;2023-04-06T01:59:25;66417.28;;;1.01;100.00
5988;BME280;3021;51.000;6.980;2023-04-06T02:01:54;66416.72;;;1.00;100.00
5988;BME280;3021;51.000;6.980;2023-04-06T02:04:19;66409.44;;;0.96;100.00
5988;BME280;3021;51.000;6.980;2023-04-06T02:06:46;66411.41;;;0.93;100.00
5988;BME280;3021;51.000;6.980;2023-04-06T02:09:11;66401.25;;;0.86;100.00
5988;BME280;3021;51.000;6.980;2023-04-06T02:11:37;66397.81;;;0.83;100.00
5988;BME280;3021;51.000;6.980;2023-04-06T02:14:05;66394.94;;;0.81;100.00
5988;BME280;3021;51.000;6.980;2023-04-06T02:16:30;66394.78;;;0.78;100.00
5988;BME280;3021;51.000;6.980;2023-04-06T02:18:56;66389.63;;;0.74;100.00
5988;BME280;3021;51.000;6.980;2023-04-06T02:21:21;66382.91;;;0.70;100.00
5988;BME280;3021;51.000;6.980;2023-04-06T02:23:47;66381.59;;;0.66;100.00
5988;BME280;3021;51.000;6.980;2023-04-06T02:26:13;66377.56;;;0.63;100.00
5988;BME280;3021;51.000;6.980;2023-04-06T02:28:38;66374.31;;;0.62;100.00
5988;BME280;3021;51.000;6.980;2023-04-06T02:31:04;66373.59;;;0.59;100.00
5988;BME280;3021;51.000;6.980;2023-04-06T02:33:29;66364.75;;;0.56;100.00
5988;BME280;3021;51.000;6.980;2023-04-06T02:35:54;66366.72;;;0.53;100.00
5988;BME280;3021;51.000;6.980;2023-04-06T02:38:20;66360.56;;;0.50;100.00
5988;BME280;3021;51.000;6.980;2023-04-06T02:40:45;66357.13;;;0.47;100.00
5988;BME280;3021;51.000;6.980;2023-04-06T02:43:11;66359.25;;;0.46;100.00
5988;BME280;3021;51.000;6.980;2023-04-06T02:45:36;66357.53;;;0.45;100.00
5988;BME280;3021;51.000;6.980;2023-04-06T02:48:01;66351.97;;;0.42;100.00
5988;BME280;3021;51.000;6.980;2023-04-06T02:50:27;66349.69;;;0.40;100.00
5988;BME280;3021;51.000;6.980;2023-04-06T02:52:53;66353.94;;;0.39;100.00
5988;BME280;3021;51.000;6.980;2023-04-06T02:55:18;66353.94;;;0.39;100.00
5988;BME280;3021;51.000;6.980;2023-04-06T02:57:44;66350.69;;;0.39;100.00
5988;BME280;3021;51.000;6.980;2023-04-06T03:00:11;66350.69;;;0.39;100.00
5988;BME280;3021;51.000;6.980;2023-04-06T03:02:36;66347.22;;;0.36;100.00
5988;BME280;3021;51.000;6.980;2023-04-06T03:05:02;66345.94;;;0.32;100.00
5988;BME280;3021;51.000;6.980;2023-04-06T03:07:28;66338.22;;;0.30;100.00
5988;BME280;3021;51.000;6.980;2023-04-06T03:09:53;66341.50;;;0.30;100.00
5988;BME280;3021;51.000;6.980;2023-04-06T03:12:21;66342.06;;;0.31;100.00
5988;BME280;3021;51.000;6.980;2023-04-06T03:14:47;66339.38;;;0.31;100.00
5988;BME280;3021;51.000;6.980;2023-04-06T03:17:12;66340.34;;;0.29;100.00
5988;BME280;3021;51.000;6.980;2023-04-06T03:19:38;66342.66;;;0.31;100.00
5988;BME280;3021;51.000;6.980;2023-04-06T03:22:03;66344.78;;;0.31;100.00
5988;BME280;3021;51.000;6.980;2023-04-06T03:24:28;66334.63;;;0.24;100.00
5988;BME280;3021;51.000;6.980;2023-04-06T03:26:54;66332.34;;;0.22;100.00
5988;BME280;3021;51.000;6.980;2023-04-06T03:29:20;66331.94;;;0.24;100.00
5988;BME280;3021;51.000;6.980;2023-04-06T03:31:45;66334.78;;;0.27;100.00
5988;BME280;3021;51.000;6.980;2023-04-06T03:34:11;66338.22;;;0.30;100.00
5988;BME280;3021;51.000;6.980;2023-04-06T03:36:36;66338.09;;;0.27;100.00
5988;BME280;3021;51.000;6.980;2023-04-06T03:39:01;66330.81;;;0.23;100.00
5988;BME280;3021;51.000;6.980;2023-04-06T03:41:27;66330.38;;;0.25;100.00
5988;BME280;3021;51.000;6.980;2023-04-06T03:43:52;66341.09;;;0.32;100.00
5988;BME280;3021;51.000;6.980;2023-04-06T03:46:18;66338.97;;;0.33;100.00
5988;BME280;3021;51.000;6.980;2023-04-06T03:48:43;66350.91;;;0.34;100.00
5988;BME280;3021;51.000;6.980;2023-04-06T03:51:11;66341.09;;;0.32;100.00
5988;BME280;3021;51.000;6.980;2023-04-06T03:53:37;66338.09;;;0.27;100.00
5988;BME280;3021;51.000;6.980;2023-04-06T03:56:02;66340.78;;;0.27;100.00
5988;BME280;3021;51.000;6.980;2023-04-06T03:58:28;66337.50;;;0.27;100.00
5988;BME280;3021;51.000;6.980;2023-04-06T04:00:53;66340.19;;;0.27;100.00
5988;BME280;3021;51.000;6.980;2023-04-06T04:03:18;66336.75;;;0.24;100.00
5988;BME280;3021;51.000;6.980;2023-04-06T04:05:44;66326.78;;;0.20;100.00
5988;BME280;3021;51.000;6.980;2023-04-06T04:08:10;66322.94;;;0.19;100.00
5988;BME280;3021;51.000;6.980;2023-04-06T04:10:35;66328.31;;;0.19;100.00
5988;BME280;3021;51.000;6.980;2023-04-06T04:13:00;66322.63;;;0.13;100.00
5988;BME280;3021;51.000;6.980;2023-04-06T04:15:26;66321.47;;;0.12;100.00
5988;BME280;3021;51.000;6.980;2023-04-06T04:17:51;66319.75;;;0.11;100.00
5988;BME280;3021;51.000;6.980;2023-04-06T04:20:17;66321.47;;;0.12;100.00
5988;BME280;3021;51.000;6.980;2023-04-06T04:22:42;66313.63;;;0.08;100.00
5988;BME280;3021;51.000;6.980;2023-04-06T04:25:08;66317.28;;;0.06;100.00
5988;BME280;3021;51.000;6.980;2023-04-06T04:27:34;66323.19;;;0.14;100.00
5988;BME280;3021;51.000;6.980;2023-04-06T04:29:59;66317.22;;;0.13;100.00
5988;BME280;3021;51.000;6.980;2023-04-06T04:32:25;66317.63;;;0.11;100.00
5988;BME280;3021;51.000;6.980;2023-04-06T04:34:52;66314.78;;;0.09;100.00
5988;BME280;3021;51.000;6.980;2023-04-06T04:37:18;66314.59;;;0.06;100.00
5988;BME280;3021;51.000;6.980;2023-04-06T04:39:44;66311.16;;;0.03;100.00
5988;BME280;3021;51.000;6.980;2023-04-06T04:42:10;66306.59;;;-0.01;100.00
5988;BME280;3021;51.000;6.980;2023-04-06T04:44:35;66303.31;;;-0.02;100.00
5988;BME280;3021;51.000;6.980;2023-04-06T04:47:01;66304.88;;;-0.03;100.00
5988;BME280;3021;51.000;6.980;2023-04-06T04:49:26;66305.25;;;-0.05;100.00
5988;BME280;3021;51.000;6.980;2023-04-06T04:51:52;66302.19;;;-0.03;100.00
5988;BME280;3021;51.000;6.980;2023-04-06T04:54:17;66302.19;;;-0.03;100.00
5988;BME280;3021;51.000;6.980;2023-04-06T04:56:44;66312.16;;;0.02;100.00
5988;BME280;3021;51.000;6.980;2023-04-06T04:59:10;66307.31;;;0.02;100.00
5988;BME280;3021;51.000;6.980;2023-04-06T05:01:35;66310.03;;;0.02;100.00
5988;BME280;3021;51.000;6.980;2023-04-06T05:04:00;66312.88;;;0.05;100.00
5988;BME280;3021;51.000;6.980;2023-04-06T05:06:26;66315.91;;;0.10;100.00
5988;BME280;3021;51.000;6.980;2023-04-06T05:08:51;66327.59;;;0.15;100.00
5988;BME280;3021;51.000;6.980;2023-04-06T05:11:17;66334.63;;;0.24;100.00
5988;BME280;3021;51.000;6.980;2023-04-06T05:13:42;66347.66;;;0.33;100.00
5988;BME280;3021;51.000;6.980;2023-04-06T05:16:07;66364.00;;;0.53;100.00
5988;BME280;3021;51.000;6.980;2023-04-06T05:18:33;66371.44;;;0.60;100.00
5988;BME280;3021;51.000;6.980;2023-04-06T05:20:58;66384.47;;;0.69;100.00
5988;BME280;3021;51.000;6.980;2023-04-06T05:23:24;66397.63;;;0.81;100.00
5988;BME280;3021;51.000;6.980;2023-04-06T05:25:50;66393.38;;;0.82;100.00
5988;BME280;3021;51.000;6.980;2023-04-06T05:28:16;66404.84;;;0.92;100.00
5988;BME280;3021;51.000;6.980;2023-04-06T05:30:42;66414.03;;;1.00;100.00
5988;BME280;3021;51.000;6.980;2023-04-06T05:33:09;66430.88;;;1.11;100.00
5988;BME280;3021;51.000;6.980;2023-04-06T05:35:34;66445.38;;;1.26;100.00
5988;BME280;3021;51.000;6.980;2023-04-06T05:38:00;66454.13;;;1.36;100.00
5988;BME280;3021;51.000;6.980;2023-04-06T05:40:25;66475.59;;;1.51;100.00
5988;BME280;3021;51.000;6.980;2023-04-06T05:42:51;66493.78;;;1.65;100.00
5988;BME280;3021;51.000;6.980;2023-04-06T05:45:16;66507.84;;;1.82;100.00
5988;BME280;3021;51.000;6.980;2023-04-06T05:47:44;66516.63;;;1.93;100.00
5988;BME280;3021;51.000;6.980;2023-04-06T05:50:10;66530.78;;;2.03;100.00
5988;BME280;3021;51.000;6.980;2023-04-06T05:52:35;66539.56;;;2.13;100.00
5988;BME280;3021;51.000;6.980;2023-04-06T05:55:02;66561.03;;;2.28;100.00
5988;BME280;3021;51.000;6.980;2023-04-06T05:57:27;66572.69;;;2.40;100.00
5988;BME280;3021;51.000;6.980;2023-04-06T05:59:52;66609.41;;;2.73;100.00
5988;BME280;3021;51.000;6.980;2023-04-06T06:02:18;66645.56;;;3.06;100.00
5988;BME280;3021;51.000;6.980;2023-04-06T06:04:46;66683.78;;;3.45;100.00
5988;BME280;3021;51.000;6.980;2023-04-06T06:07:11;66723.81;;;3.78;100.00
5988;BME280;3021;51.000;6.980;2023-04-06T06:09:37;66747.38;;;4.00;100.00
5988;BME280;3021;51.000;6.980;2023-04-06T06:12:02;66793.50;;;4.43;100.00
5988;BME280;3021;51.000;6.980;2023-04-06T06:14:27;66883.03;;;5.21;100.00
5988;BME280;3021;51.000;6.980;2023-04-06T06:16:55;67011.41;;;6.36;100.00
5988;BME280;3021;51.000;6.980;2023-04-06T06:19:21;67012.72;;;6.39;100.00
5988;BME280;3021;51.000;6.980;2023-04-06T06:21:46;67084.53;;;7.01;100.00
5988;BME280;3021;51.000;6.980;2023-04-06T06:24:11;67093.38;;;7.12;100.00
5988;BME280;3021;51.000;6.980;2023-04-06T06:26:37;67119.84;;;7.35;100.00
5988;BME280;3021;51.000;6.980;2023-04-06T06:29:04;67168.25;;;7.78;100.00
5988;BME280;3021;51.000;6.980;2023-04-06T06:31:30;67209.78;;;8.16;100.00
5988;BME280;3021;51.000;6.980;2023-04-06T06:33:56;67266.91;;;8.67;100.00
5988;BME280;3021;51.000;6.980;2023-04-06T06:36:21;67378.31;;;9.66;100.00
5988;BME280;3021;51.000;6.980;2023-04-06T06:38:46;67396.22;;;9.82;100.00
5988;BME280;3021;51.000;6.980;2023-04-06T06:41:12;67339.19;;;9.33;100.00
5988;BME280;3021;51.000;6.980;2023-04-06T06:43:37;67317.25;;;9.14;100.00
5988;BME280;3021;51.000;6.980;2023-04-06T06:46:04;67311.75;;;9.04;100.00
5988;BME280;3021;51.000;6.980;2023-04-06T06:48:29;67300.38;;;8.96;100.00
5988;BME280;3021;51.000;6.980;2023-04-06T06:50:55;67267.47;;;8.67;100.00
5988;BME280;3021;51.000;6.980;2023-04-06T06:53:21;67249.59;;;8.51;100.00
5988;BME280;3021;51.000;6.980;2023-04-06T06:55:46;67211.38;;;8.15;100.00
5988;BME280;3021;51.000;6.980;2023-04-06T06:58:14;67224.78;;;8.29;100.00
5988;BME280;3021;51.000;6.980;2023-04-06T07:00:39;67348.28;;;9.39;100.00
5988;BME280;3021;51.000;6.980;2023-04-06T07:03:04;67541.41;;;11.14;100.00
5988;BME280;3021;51.000;6.980;2023-04-06T07:05:30;67534.50;;;11.07;100.00
5988;BME280;3021;51.000;6.980;2023-04-06T07:07:55;67566.28;;;11.36;100.00
5988;BME280;3021;51.000;6.980;2023-04-06T07:10:21;67386.53;;;9.76;100.00
5988;BME280;3021;51.000;6.980;2023-04-06T07:12:46;67381.19;;;9.68;100.00
5988;BME280;3021;51.000;6.980;2023-04-06T07:15:12;67336.88;;;9.31;100.00
5988;BME280;3021;51.000;6.980;2023-04-06T07:17:37;67344.97;;;9.39;100.00
5988;BME280;3021;51.000;6.980;2023-04-06T07:20:03;67374.41;;;9.65;100.00
5988;BME280;3021;51.000;6.980;2023-04-06T07:22:29;67397.22;;;9.80;100.00
5988;BME280;3021;51.000;6.980;2023-04-06T07:24:54;67275.56;;;8.74;100.00
5988;BME280;3021;51.000;6.980;2023-04-06T07:27:20;67254.38;;;8.58;100.00
5988;BME280;3021;51.000;6.980;2023-04-06T07:29:45;67271.09;;;8.73;100.00
5988;BME280;3021;51.000;6.980;2023-04-06T07:32:10;67333.28;;;9.26;100.00
5988;BME280;3021;51.000;6.980;2023-04-06T07:34:36;67390.88;;;9.75;100.00
5988;BME280;3021;51.000;6.980;2023-04-06T07:37:01;67448.34;;;10.31;100.00
5988;BME280;3021;51.000;6.980;2023-04-06T07:39:28;67542.00;;;11.14;100.00
5988;BME280;3021;51.000;6.980;2023-04-06T07:41:53;67655.94;;;12.16;100.00
5988;BME280;3021;51.000;6.980;2023-04-06T07:44:18;67706.16;;;12.58;100.00
5988;BME280;3021;51.000;6.980;2023-04-06T07:46:47;67683.75;;;12.40;100.00
5988;BME280;3021;51.000;6.980;2023-04-06T07:49:12;67665.78;;;12.24;100.00
5988;BME280;3021;51.000;6.980;2023-04-06T07:51:38;67623.97;;;11.85;100.00
5988;BME280;3021;51.000;6.980;2023-04-06T07:54:04;67648.44;;;12.09;100.00
5988;BME280;3021;51.000;6.980;2023-04-06T07:56:30;67698.78;;;12.54;100.00
5988;BME280;3021;51.000;6.980;2023-04-06T07:58:55;67698.94;;;12.56;100.00
5988;BME280;3021;51.000;6.980;2023-04-06T08:01:22;67736.53;;;12.90;100.00
5988;BME280;3021;51.000;6.980;2023-04-06T08:03:48;67764.63;;;13.10;100.00
5988;BME280;3021;51.000;6.980;2023-04-06T08:06:14;67778.81;;;13.27;100.00
5988;BME280;3021;51.000;6.980;2023-04-06T08:08:40;67737.56;;;12.88;100.00
5988;BME280;3021;51.000;6.980;2023-04-06T08:11:06;67696.34;;;12.49;100.00
5988;BME280;3021;51.000;6.980;2023-04-06T08:13:31;67686.06;;;12.42;100.00
5988;BME280;3021;51.000;6.980;2023-04-06T08:15:57;67696.91;;;12.50;100.00
5988;BME280;3021;51.000;6.980;2023-04-06T08:18:23;67717.16;;;12.68;100.00
5988;BME280;3021;51.000;6.980;2023-04-06T08:20:49;67785.06;;;13.30;100.00
5988;BME280;3021;51.000;6.980;2023-04-06T08:23:14;67958.38;;;14.84;100.00
5988;BME280;3021;51.000;6.980;2023-04-06T08:25:40;68072.69;;;15.86;100.00
5988;BME280;3021;51.000;6.980;2023-04-06T08:28:07;68195.34;;;16.97;100.00
5988;BME280;3021;51.000;6.980;2023-04-06T08:30:33;68030.31;;;15.48;100.00
5988;BME280;3021;51.000;6.980;2023-04-06T08:32:59;68117.97;;;16.26;100.00
5988;BME280;3021;51.000;6.980;2023-04-06T08:35:26;68152.38;;;16.59;100.00
5988;BME280;3021;51.000;6.980;2023-04-06T08:37:51;68031.03;;;15.51;100.00
5988;BME280;3021;51.000;6.980;2023-04-06T08:40:16;68065.72;;;15.80;100.00
5988;BME280;3021;51.000;6.980;2023-04-06T08:42:47;68188.97;;;16.91;100.00
5988;BME280;3021;51.000;6.980;2023-04-06T08:45:16;68419.78;;;18.96;100.00
5988;BME280;3021;51.000;6.980;2023-04-06T08:47:42;68387.66;;;18.65;99.57
5988;BME280;3021;51.000;6.980;2023-04-06T08:50:08;68431.56;;;19.09;100.00
5988;BME280;3021;51.000;6.980;2023-04-06T08:52:33;68567.66;;;20.27;96.86
5988;BME280;3021;51.000;6.980;2023-04-06T08:54:59;68469.38;;;19.42;94.97
5988;BME280;3021;51.000;6.980;2023-04-06T08:57:25;68465.91;;;19.39;95.43
5988;BME280;3021;51.000;6.980;2023-04-06T08:59:51;68551.50;;;20.15;93.15
5988;BME280;3021;51.000;6.980;2023-04-06T09:02:18;68551.22;;;20.10;93.59
5988;BME280;3021;51.000;6.980;2023-04-06T09:04:48;68558.91;;;20.19;93.03
5988;BME280;3021;51.000;6.980;2023-04-06T09:07:15;68725.00;;;21.66;92.67
5988;BME280;3021;51.000;6.980;2023-04-06T09:09:40;68780.41;;;22.15;88.93
5988;BME280;3021;51.000;6.980;2023-04-06T09:14:49;68935.75;;;23.54;87.75
5988;BME280;3021;51.000;6.980;2023-04-06T09:17:29;69231.47;;;26.15;82.76
5988;BME280;3021;51.000;6.980;2023-04-06T09:19:55;69110.44;;;25.08;77.55
5988;BME280;3021;51.000;6.980;2023-04-06T09:22:21;69176.03;;;25.68;77.63
5988;BME280;3021;51.000;6.980;2023-04-06T09:24:50;69023.94;;;24.32;77.34
5988;BME280;3021;51.000;6.980;2023-04-06T09:27:16;69048.50;;;24.54;80.83
5988;BME280;3021;51.000;6.980;2023-04-06T09:29:43;69062.06;;;24.68;77.96
5988;BME280;3021;51.000;6.980;2023-04-06T09:32:09;68966.69;;;23.81;80.02
5988;BME280;3021;51.000;6.980;2023-04-06T09:34:37;68944.50;;;23.62;80.38
5988;BME280;3021;51.000;6.980;2023-04-06T09:37:15;69021.03;;;24.29;77.93
5988;BME280;3021;51.000;6.980;2023-04-06T09:39:41;69014.63;;;24.24;78.83
5988;BME280;3021;51.000;6.980;2023-04-06T09:42:06;68944.41;;;23.59;77.25
5988;BME280;3021;51.000;6.980;2023-04-06T09:44:32;68688.84;;;21.34;81.03
5988;BME280;3021;51.000;6.980;2023-04-06T09:46:57;68680.09;;;21.26;82.38
5988;BME280;3021;51.000;6.980;2023-04-06T09:49:23;68700.63;;;21.47;82.95
5988;BME280;3021;51.000;6.980;2023-04-06T09:51:55;68729.53;;;21.67;83.71
5988;BME280;3021;51.000;6.980;2023-04-06T09:54:22;68665.66;;;21.16;84.46
5988;BME280;3021;51.000;6.980;2023-04-06T10:02:15;69042.63;;;24.48;79.56
5988;BME280;3021;51.000;6.980;2023-04-06T10:04:53;69285.88;;;26.63;79.53
5988;BME280;3021;51.000;6.980;2023-04-06T10:07:21;69231.47;;;26.15;76.61
5988;BME280;3021;51.000;6.980;2023-04-06T10:09:47;69250.66;;;26.29;80.87
5988;BME280;3021;51.000;6.980;2023-04-06T10:12:14;69330.97;;;27.02;78.12
5988;BME280;3021;51.000;6.980;2023-04-06T10:14:40;69356.69;;;27.25;75.74
5988;BME280;3021;51.000;6.980;2023-04-06T10:17:06;69250.19;;;26.31;75.37
5988;BME280;3021;51.000;6.980;2023-04-06T10:19:53;68992.28;;;24.02;76.68
5988;BME280;3021;51.000;6.980;2023-04-06T10:22:44;68903.53;;;23.23;80.96
5988;BME280;3021;51.000;6.980;2023-04-06T10:25:16;68816.59;;;22.47;81.68
5988;BME280;3021;51.000;6.980;2023-04-06T10:27:41;68851.56;;;22.77;84.64
5988;BME280;3021;51.000;6.980;2023-04-06T10:30:07;68979.00;;;23.92;81.26
5988;BME280;3021;51.000;6.980;2023-04-06T10:32:36;68887.78;;;23.09;80.50
5988;BME280;3021;51.000;6.980;2023-04-06T10:35:10;68884.97;;;23.09;82.31
5988;BME280;3021;51.000;6.980;2023-04-06T10:37:53;68890.94;;;23.17;81.09
5988;BME280;3021;51.000;6.980;2023-04-06T10:40:23;68852.19;;;22.78;81.67
5988;BME280;3021;51.000;6.980;2023-04-06T10:42:49;68739.00;;;21.78;81.87
5988;BME280;3021;51.000;6.980;2023-04-06T10:45:23;68797.44;;;22.32;84.80
5988;BME280;3021;51.000;6.980;2023-04-06T10:47:50;68781.44;;;22.13;83.12
5988;BME280;3021;51.000;6.980;2023-04-06T10:50:17;68650.97;;;21.00;83.13
5988;BME280;3021;51.000;6.980;2023-04-06T10:52:45;68667.28;;;21.15;86.12
5988;BME280;3021;51.000;6.980;2023-04-06T10:55:13;68771.78;;;22.09;85.79
5988;BME280;3021;51.000;6.980;2023-04-06T10:57:39;68824.75;;;22.54;82.98
5988;BME280;3021;51.000;6.980;2023-04-06T11:00:05;68714.53;;;21.56;83.89
5988;BME280;3021;51.000;6.980;2023-04-06T11:02:31;68720.94;;;21.62;86.88
5988;BME280;3021;51.000;6.980;2023-04-06T11:04:57;68644.56;;;20.95;83.76
5988;BME280;3021;51.000;6.980;2023-04-06T11:07:27;68592.13;;;20.48;84.60
5988;BME280;3021;51.000;6.980;2023-04-06T11:09:54;68483.22;;;19.52;85.61
5988;BME280;3021;51.000;6.980;2023-04-06T11:12:24;68480.31;;;19.49;88.18
5988;BME280;3021;51.000;6.980;2023-04-06T11:15:01;68504.88;;;19.74;88.67
5988;BME280;3021;51.000;6.980;2023-04-06T11:17:36;68406.84;;;18.82;86.56
5988;BME280;3021;51.000;6.980;2023-04-06T11:20:04;68328.91;;;18.13;88.18
5988;BME280;3021;51.000;6.980;2023-04-06T11:22:30;68328.47;;;18.15;92.53
5988;BME280;3021;51.000;6.980;2023-04-06T11:25:06;68359.28;;;18.42;91.33
5988;BME280;3021;51.000;6.980;2023-04-06T11:27:33;68380.78;;;18.61;93.30
5988;BME280;3021;51.000;6.980;2023-04-06T11:30:00;68341.97;;;18.29;92.64
5988;BME280;3021;51.000;6.980;2023-04-06T11:32:26;68367.41;;;18.50;93.72
5988;BME280;3021;51.000;6.980;2023-04-06T11:34:51;68386.63;;;18.67;93.30
5988;BME280;3021;51.000;6.980;2023-04-06T11:37:16;68388.38;;;18.68;92.54
5988;BME280;3021;51.000;6.980;2023-04-06T11:39:48;68348.22;;;18.33;94.97
5988;BME280;3021;51.000;6.980;2023-04-06T11:42:26;68327.16;;;18.11;92.49
5988;BME280;3021;51.000;6.980;2023-04-06T11:44:54;68299.25;;;17.87;92.84
5988;BME280;3021;51.000;6.980;2023-04-06T11:47:20;68318.00;;;18.06;92.18
5988;BME280;3021;51.000;6.980;2023-04-06T11:49:52;68320.31;;;18.08;94.71
5988;BME280;3021;51.000;6.980;2023-04-06T11:52:23;68372.06;;;18.54;94.50
5988;BME280;3021;51.000;6.980;2023-04-06T11:54:50;68311.03;;;18.00;94.08
5988;BME280;3021;51.000;6.980;2023-04-06T11:57:17;68311.59;;;18.00;93.94
5988;BME280;3021;51.000;6.980;2023-04-06T11:59:43;68344.16;;;18.29;93.08
5988;BME280;3021;51.000;6.980;2023-04-06T12:02:09;68327.88;;;18.14;91.91
5988;BME280;3021;51.000;6.980;2023-04-06T12:04:35;68309.16;;;17.95;91.15
5988;BME280;3021;51.000;6.980;2023-04-06T12:07:02;68293.56;;;17.84;92.24
5988;BME280;3021;51.000;6.980;2023-04-06T12:09:28;68305.50;;;17.90;93.40
5988;BME280;3021;51.000;6.980;2023-04-06T12:11:54;68329.50;;;18.13;92.84
5988;BME280;3021;51.000;6.980;2023-04-06T12:14:20;68350.53;;;18.35;92.78
5988;BME280;3021;51.000;6.980;2023-04-06T12:16:46;68289.63;;;17.83;92.77
5988;BME280;3021;51.000;6.980;2023-04-06T12:19:11;68300.69;;;17.93;94.54
5988;BME280;3021;51.000;6.980;2023-04-06T12:21:37;68359.84;;;18.43;94.26
5988;BME280;3021;51.000;6.980;2023-04-06T12:24:03;68340.56;;;18.23;93.41
5988;BME280;3021;51.000;6.980;2023-04-06T12:26:29;68275.69;;;17.71;94.58
5988;BME280;3021;51.000;6.980;2023-04-06T12:28:54;68298.78;;;17.89;94.27
5988;BME280;3021;51.000;6.980;2023-04-06T12:31:21;68354.50;;;18.36;95.38
5988;BME280;3021;51.000;6.980;2023-04-06T12:33:48;68402.31;;;18.80;94.15
5988;BME280;3021;51.000;6.980;2023-04-06T12:36:15;68409.31;;;18.87;92.36
5988;BME280;3021;51.000;6.980;2023-04-06T12:38:41;68372.06;;;18.54;92.87
5988;BME280;3021;51.000;6.980;2023-04-06T12:41:07;68330.06;;;18.14;92.70
5988;BME280;3021;51.000;6.980;2023-04-06T12:43:33;68294.00;;;17.82;92.69
5988;BME280;3021;51.000;6.980;2023-04-06T12:45:58;68313.22;;;17.99;94.74
5988;BME280;3021;51.000;6.980;2023-04-06T12:48:24;68298.06;;;17.86;92.23
5988;BME280;3021;51.000;6.980;2023-04-06T12:50:54;68249.97;;;17.45;93.61
5988;BME280;3021;51.000;6.980;2023-04-06T12:53:20;68270.31;;;17.64;95.62
5988;BME280;3021;51.000;6.980;2023-04-06T12:55:46;68262.28;;;17.59;96.79
5988;BME280;3021;51.000;6.980;2023-04-06T12:58:11;68235.31;;;17.30;98.27
5988;BME280;3021;51.000;6.980;2023-04-06T13:00:36;68222.78;;;17.24;99.16
5988;BME280;3021;51.000;6.980;2023-04-06T13:03:02;68220.22;;;17.17;99.50
5988;BME280;3021;51.000;6.980;2023-04-06T13:05:27;68194.66;;;16.94;100.00
5988;BME280;3021;51.000;6.980;2023-04-06T13:07:53;68184.75;;;16.85;100.00
5988;BME280;3021;51.000;6.980;2023-04-06T13:10:18;68220.91;;;17.20;100.00
5988;BME280;3021;51.000;6.980;2023-04-06T13:12:43;68212.78;;;17.13;99.76
5988;BME280;3021;51.000;6.980;2023-04-06T13:15:09;68196.66;;;17.01;99.90
5988;BME280;3021;51.000;6.980;2023-04-06T13:17:35;68175.91;;;16.75;100.00
5988;BME280;3021;51.000;6.980;2023-04-06T13:20:00;68148.75;;;16.53;100.00
5988;BME280;3021;51.000;6.980;2023-04-06T13:22:26;68146.09;;;16.56;100.00